Terminal Aerodrome Forecast
Issued by NWS Sioux Falls, SD

Home | Current Version | Previous Version | Graphics & Text | Print | Product List | Glossary Off
Versions: 1 2 3 4 5 6 7 8 9 10 11 12 13 14 15

000
FTUS43 KFSD 261745
TAFFSD
TAF
KFSD 261745Z 2618/2718 35009KT P6SM BKN016
     FM261900 36010KT P6SM SCT045 SCT100
     FM270100 VRB03KT P6SM SCT200
     FM271200 29006KT P6SM SCT100=

USA.gov is the U.S. government's official web portal to all federal, state and local government web resources and services.